Lisbon, Maryland
Current Conditions -  °F | °C
As of 11:55 AM on Thursday 23 Oct 2014 (Local Time) from KGAI Reporting Station
Scattered Clouds Scattered Clouds  
Wind Chill: 59°   Ceiling: Unl
Heat Index: 59°   Visibility: 10mi
Dew Point: 45°   Wind: 13mph
Humidity: 59%   Direction: 310°NW
Pressure: 29.93"   Gusts: 26mph
Location:  39.34°N, 77.07°W
Report Text: KGAI 231555Z 31011G23KT 280V350 10SM SCT037 15/07 A2993 RMK AO1
Loading
Personal Weather Stations






























Interactive Weather Map
Tropical Storm Tracking
New forecast layout! Learn more

10-Day Weather Forecast

Advertisements
Track Severe Weather on mobile